N60US KPOU-KHVN
Flight info
| Callsign | N60US |
|---|---|
| Flight time | 0h 22m |
| Altitude | 13000 |
| Route | IGN LOVES T705 DENNA |
| Aircraft | C25B/M-SDE2E3FGHRWXY/LB1 |
Departure
| Time | 2026-05-07 02:10 |
|---|---|
| Airport | Dutchess County Airport (KPOU) |
Arrival
| Time | 2026-05-07 02:32 |
|---|---|
| Airport | Tweed New Haven Airport (KHVN) |
| Time | Latitude | Longitude | Altitude | Speed | Heading |
|---|---|---|---|---|---|
| 2026-05-07 01:48 | 41.62486 | -73.88263 | 160 ft | 0 kts | 140° |
| 2026-05-07 01:49 | 41.62453 | -73.88323 | 159 ft | 0 kts | 53° |
| 2026-05-07 02:07 | 41.62448 | -73.88341 | 159 ft | 8 kts | 186° |
| 2026-05-07 02:07 | 41.62423 | -73.88396 | 158 ft | 9 kts | 290° |
| 2026-05-07 02:08 | 41.62460 | -73.88488 | 157 ft | 12 kts | 300° |
| 2026-05-07 02:08 | 41.62431 | -73.88610 | 156 ft | 17 kts | 230° |
| 2026-05-07 02:08 | 41.62408 | -73.88755 | 155 ft | 16 kts | 296° |
| 2026-05-07 02:08 | 41.62391 | -73.88866 | 154 ft | 16 kts | 229° |
| 2026-05-07 02:09 | 41.62308 | -73.88998 | 153 ft | 21 kts | 230° |
| 2026-05-07 02:09 | 41.62219 | -73.89138 | 151 ft | 12 kts | 232° |
| 2026-05-07 02:09 | 41.62207 | -73.89184 | 151 ft | 4 kts | 58° |
| 2026-05-07 02:09 | 41.62259 | -73.89095 | 152 ft | 35 kts | 51° |
| 2026-05-07 02:10 | 41.62642 | -73.88482 | 163 ft | 135 kts | 49° |
| 2026-05-07 02:10 | 41.63309 | -73.87306 | 818 ft | 171 kts | 54° |
| 2026-05-07 02:10 | 41.64023 | -73.85904 | 1597 ft | 203 kts | 53° |
| 2026-05-07 02:10 | 41.64910 | -73.84357 | 2657 ft | 208 kts | 49° |
| 2026-05-07 02:11 | 41.65823 | -73.82734 | 2983 ft | 233 kts | 50° |
| 2026-05-07 02:11 | 41.66844 | -73.80861 | 2984 ft | 263 kts | 57° |
| 2026-05-07 02:11 | 41.67190 | -73.78438 | 3326 ft | 275 kts | 101° |
| 2026-05-07 02:11 | 41.66327 | -73.76182 | 3987 ft | 276 kts | 134° |
| 2026-05-07 02:12 | 41.64971 | -73.74339 | 4663 ft | 280 kts | 138° |
| 2026-05-07 02:12 | 41.63703 | -73.72317 | 5339 ft | 286 kts | 130° |
| 2026-05-07 02:12 | 41.62683 | -73.70011 | 6046 ft | 292 kts | 122° |
| 2026-05-07 02:12 | 41.61722 | -73.67561 | 6568 ft | 298 kts | 124° |
| 2026-05-07 02:13 | 41.60666 | -73.65211 | 7153 ft | 300 kts | 128° |
| 2026-05-07 02:13 | 41.59581 | -73.62818 | 7778 ft | 303 kts | 127° |
| 2026-05-07 02:13 | 41.58500 | -73.60366 | 8280 ft | 308 kts | 127° |
| 2026-05-07 02:13 | 41.57407 | -73.57884 | 8903 ft | 310 kts | 128° |
| 2026-05-07 02:14 | 41.56300 | -73.55391 | 9498 ft | 313 kts | 128° |
| 2026-05-07 02:14 | 41.55181 | -73.52874 | 10050 ft | 317 kts | 128° |
| 2026-05-07 02:14 | 41.54048 | -73.50321 | 10563 ft | 320 kts | 129° |
| 2026-05-07 02:14 | 41.52903 | -73.47756 | 11204 ft | 323 kts | 129° |
| 2026-05-07 02:15 | 41.51754 | -73.45152 | 11713 ft | 328 kts | 128° |
| 2026-05-07 02:15 | 41.50582 | -73.42525 | 12255 ft | 330 kts | 129° |
| 2026-05-07 02:15 | 41.49407 | -73.39906 | 12782 ft | 334 kts | 128° |
| 2026-05-07 02:15 | 41.48202 | -73.37197 | 12970 ft | 347 kts | 128° |
| 2026-05-07 02:16 | 41.46948 | -73.34332 | 12977 ft | 367 kts | 123° |
| 2026-05-07 02:16 | 41.45801 | -73.31218 | 12983 ft | 377 kts | 127° |
| 2026-05-07 02:16 | 41.44346 | -73.28319 | 12989 ft | 385 kts | 132° |
| 2026-05-07 02:16 | 41.42804 | -73.25335 | 12988 ft | 397 kts | 129° |
| 2026-05-07 02:17 | 41.41379 | -73.22114 | 12989 ft | 408 kts | 124° |
| 2026-05-07 02:17 | 41.39996 | -73.18782 | 12990 ft | 413 kts | 126° |
| 2026-05-07 02:17 | 41.38514 | -73.15508 | 12990 ft | 408 kts | 128° |
| 2026-05-07 02:17 | 41.37021 | -73.12405 | 12976 ft | 385 kts | 134° |
| 2026-05-07 02:18 | 41.35053 | -73.10266 | 12968 ft | 349 kts | 160° |
| 2026-05-07 02:18 | 41.32925 | -73.08993 | 12971 ft | 333 kts | 166° |
| 2026-05-07 02:18 | 41.30818 | -73.07828 | 12961 ft | 325 kts | 166° |
| 2026-05-07 02:18 | 41.28808 | -73.06465 | 12961 ft | 324 kts | 158° |
| 2026-05-07 02:19 | 41.26930 | -73.04810 | 12960 ft | 320 kts | 155° |
| 2026-05-07 02:19 | 41.25042 | -73.03212 | 12960 ft | 325 kts | 158° |
| 2026-05-07 02:19 | 41.23083 | -73.01687 | 12964 ft | 335 kts | 158° |
| 2026-05-07 02:19 | 41.21053 | -73.00077 | 12966 ft | 343 kts | 158° |
| 2026-05-07 02:20 | 41.18993 | -72.98410 | 12970 ft | 350 kts | 157° |
| 2026-05-07 02:20 | 41.16897 | -72.96708 | 12975 ft | 354 kts | 157° |
| 2026-05-07 02:20 | 41.14770 | -72.95013 | 12976 ft | 358 kts | 157° |
| 2026-05-07 02:20 | 41.12626 | -72.93294 | 12979 ft | 361 kts | 157° |
| 2026-05-07 02:21 | 41.10463 | -72.91557 | 12980 ft | 364 kts | 157° |
| 2026-05-07 02:21 | 41.08317 | -72.89831 | 12979 ft | 367 kts | 156° |
| 2026-05-07 02:21 | 41.06292 | -72.87683 | 12976 ft | 373 kts | 145° |
| 2026-05-07 02:21 | 41.04461 | -72.85381 | 12970 ft | 352 kts | 145° |
| 2026-05-07 02:22 | 41.02714 | -72.83236 | 12972 ft | 331 kts | 147° |
| 2026-05-07 02:22 | 41.01038 | -72.81271 | 12974 ft | 314 kts | 148° |
| 2026-05-07 02:22 | 40.99444 | -72.79384 | 12975 ft | 300 kts | 148° |
| 2026-05-07 02:22 | 40.97930 | -72.77584 | 12809 ft | 294 kts | 148° |
| 2026-05-07 02:23 | 40.96404 | -72.75766 | 12421 ft | 297 kts | 147° |
| 2026-05-07 02:23 | 40.94848 | -72.73961 | 12028 ft | 294 kts | 152° |
| 2026-05-07 02:23 | 40.93079 | -72.72784 | 11625 ft | 280 kts | 171° |
| 2026-05-07 02:23 | 40.91206 | -72.72235 | 11201 ft | 269 kts | 186° |
| 2026-05-07 02:24 | 40.89379 | -72.72376 | 10793 ft | 263 kts | 198° |
| 2026-05-07 02:24 | 40.87679 | -72.73113 | 10427 ft | 253 kts | 212° |
| 2026-05-07 02:24 | 40.86195 | -72.74306 | 10124 ft | 245 kts | 225° |
| 2026-05-07 02:24 | 40.85024 | -72.75897 | 9839 ft | 239 kts | 235° |
| 2026-05-07 02:25 | 40.84176 | -72.77764 | 9518 ft | 236 kts | 247° |
| 2026-05-07 02:25 | 40.83659 | -72.79813 | 9155 ft | 236 kts | 258° |
| 2026-05-07 02:25 | 40.83527 | -72.81958 | 8807 ft | 238 kts | 268° |
| 2026-05-07 02:25 | 40.83767 | -72.84129 | 8478 ft | 241 kts | 281° |
| 2026-05-07 02:26 | 40.84380 | -72.86207 | 8155 ft | 245 kts | 292° |
| 2026-05-07 02:26 | 40.85385 | -72.88062 | 7874 ft | 250 kts | 304° |
| 2026-05-07 02:26 | 40.86720 | -72.89584 | 7598 ft | 258 kts | 319° |
| 2026-05-07 02:26 | 40.88339 | -72.90664 | 7295 ft | 266 kts | 332° |
| 2026-05-07 02:27 | 40.90170 | -72.91154 | 6934 ft | 278 kts | 347° |
| 2026-05-07 02:27 | 40.92138 | -72.91073 | 6555 ft | 284 kts | 357° |
| 2026-05-07 02:27 | 40.94098 | -72.90937 | 6176 ft | 281 kts | 354° |
| 2026-05-07 02:27 | 40.96052 | -72.90826 | 5773 ft | 280 kts | 356° |
| 2026-05-07 02:28 | 40.97993 | -72.90683 | 5373 ft | 277 kts | 356° |
| 2026-05-07 02:28 | 40.99917 | -72.90552 | 4987 ft | 275 kts | 356° |
| 2026-05-07 02:28 | 41.01820 | -72.90431 | 4629 ft | 272 kts | 357° |
| 2026-05-07 02:28 | 41.03674 | -72.90296 | 4265 ft | 268 kts | 357° |
| 2026-05-07 02:29 | 41.05527 | -72.90177 | 3912 ft | 266 kts | 357° |
| 2026-05-07 02:29 | 41.07373 | -72.90052 | 3558 ft | 263 kts | 357° |
| 2026-05-07 02:29 | 41.09202 | -72.89932 | 3212 ft | 261 kts | 358° |
| 2026-05-07 02:29 | 41.11013 | -72.89804 | 2867 ft | 259 kts | 358° |
| 2026-05-07 02:30 | 41.12806 | -72.89688 | 2521 ft | 257 kts | 357° |
| 2026-05-07 02:30 | 41.14567 | -72.89569 | 2185 ft | 255 kts | 358° |
| 2026-05-07 02:30 | 41.16328 | -72.89447 | 1848 ft | 250 kts | 357° |
| 2026-05-07 02:30 | 41.18045 | -72.89335 | 1518 ft | 243 kts | 358° |
| 2026-05-07 02:31 | 41.19714 | -72.89219 | 1192 ft | 237 kts | 358° |
| 2026-05-07 02:31 | 41.21348 | -72.89115 | 881 ft | 232 kts | 360° |
| 2026-05-07 02:31 | 41.22923 | -72.89007 | 570 ft | 218 kts | 1° |
| 2026-05-07 02:31 | 41.24276 | -72.88907 | 326 ft | 169 kts | 2° |
| 2026-05-07 02:32 | 41.25337 | -72.88838 | 92 ft | 139 kts | 2° |
| 2026-05-07 02:32 | 41.26217 | -72.88785 | 14 ft | 112 kts | 5° |
| 2026-05-07 02:32 | 41.26797 | -72.88748 | 10 ft | 50 kts | 2° |
| 2026-05-07 02:32 | 41.26967 | -72.88771 | 13 ft | 17 kts | 284° |
| 2026-05-07 02:33 | 41.26951 | -72.88903 | 12 ft | 16 kts | 199° |